Nearby METAR Reports

 

KSJC - San Jose, California, USA
Distance from station: NE 14km
Updated: 22/07/2019 11:53
Clear
Clear
 Wind from varies
Wind: varies 7 km/h
Temperature: 27°C
Heat Index: 28°C
Dew Point: 16°C
Humidity: 51%
Barometer: 1014.6 hPa
Clouds: Clear
Visibility: 16 km
2019/07/22 18:53 KSJC 221853Z VRB04KT 10SM CLR 27/16 A2996 RMK AO2 SLP143 T02720156
KNUQ - Moffett Nas/Mtn, California, USA
Distance from station: N 14km
Updated: 22/07/2019 11:56
Clear
Clear
 Wind from N
Wind: N 13 km/h
Temperature: 26°C
Dew Point: 17°C
Humidity: 58%
Barometer: 1014.9 hPa
Clouds: Clear
Visibility: 16 km
2019/07/22 18:56 KNUQ 221856Z 01007KT 10SM CLR 26/17 A2997 RMK AO2 SLP150 T02610167 $
 
KPAO - Palo Alto, California, USA
Distance from station: NNW 23km
Updated: 22/07/2019 11:47
Clear
Clear
 Wind from varies
Wind: varies 7 km/h
Temperature: 22°C
Dew Point: 17°C
Humidity: 73%
Barometer: 1014.9 hPa
Clouds: Clear
Visibility: 16 km
2019/07/22 18:47 KPAO 221847Z VRB04KT 10SM SKC 22/17 A2997
KRHV - San Jose/Reid, California, USA
Distance from station: ENE 19km
Updated: 22/07/2019 11:47
Clear
Clear
 Wind from calm
Wind: Calm
Temperature: 27°C
Heat Index: 27°C
Dew Point: 14°C
Humidity: 45%
Barometer: 1014.6 hPa
Clouds: Clear
Visibility: 16 km
2019/07/22 18:47 KRHV 221847Z 00000KT 10SM SKC 27/14 A2996
 
KOAK - Oakland, California, USA
Distance from station: NNW 50km
Updated: 22/07/2019 11:53
Few Clouds
Few Clouds
 Wind from WNW
Wind: WNW 15 km/h
Temperature: 23°C
Dew Point: 14°C
Humidity: 57%
Barometer: 1015.2 hPa
Clouds: Few Clouds
Visibility: 16 km
Cloud details: Few Clouds 244 m
2019/07/22 18:53 KOAK 221853Z 30008KT 10SM FEW008 23/14 A2998 RMK AO2 SLP153 T02280139
KSQL - San Carlos Airpo, California, USA
Distance from station: NW 34km
Updated: 22/07/2019 11:47
Clear
Clear
 Wind from N
Wind: N 13 km/h
Temperature: 22°C
Dew Point: 17°C
Humidity: 73%
Barometer: 1015.2 hPa
Clouds: Clear
Visibility: 16 km
2019/07/22 18:47 KSQL 221847Z 01007KT 10SM SKC 22/17 A2998
 
KSFO - San Francisco, California, USA
Distance from station: NW 49km
Updated: 22/07/2019 11:56
Clear
Clear
 Wind from NW
Wind: NW 20 km/h
Temperature: 22°C
Dew Point: 13°C
Humidity: 57%
Barometer: 1014.9 hPa
Clouds: Clear
Visibility: 16 km
2019/07/22 18:56 KSFO 221856Z 31011KT 10SM CLR 22/13 A2997 RMK AO2 SLP149 T02170133
KE16 - San Martin, California, USA
Distance from station: ESE 43km
Updated: 22/07/2019 11:15
Clear
Clear
 Wind from S
Wind: S 7 km/h
Temperature: 23°C
Dew Point: 13°C
Humidity: 53%
Barometer: 1015.2 hPa
Clouds: Clear
Visibility: 16 km
2019/07/22 18:15 KE16 221815Z AUTO 19004KT 10SM CLR 23/13 A2998 RMK AO2
 
KWVI - Watsonville, California, USA
Distance from station: SSE 44km
Updated: 22/07/2019 11:53
Clear
Clear
 Wind from SSW
Wind: SSW 15 km/h
Temperature: 20°C
Dew Point: 13°C
Humidity: 64%
Barometer: 1015.9 hPa
Clouds: Clear
Visibility: 16 km
2019/07/22 18:53 KWVI 221853Z AUTO 21008KT 10SM CLR 20/13 A3000 RMK AO2 SLP157 T02000133
KHAF - Half Moon Bay, California, USA
Distance from station: WNW 50km
Updated: 22/07/2019 12:00
Overcast
Overcast
 Wind from S
Wind: S 13 km/h
Temperature: 15°C
Dew Point: 13°C
Humidity: 88%
Barometer: 1016.6 hPa
Clouds: Overcast
Visibility: 14 km
Cloud details: Overcast 122 m
2019/07/22 19:00 KHAF 221900Z AUTO 17007KT 9SM OVC004 15/13 A3002 RMK AO2
 
KHWD - Hayward, California, USA
Distance from station: N 44km
Updated: 22/07/2019 11:54
Clear
Clear
 Wind from W
Wind: W 13 km/h
Temperature: 23°C
Dew Point: 15°C
Humidity: 61%
Barometer: 1014.9 hPa
Clouds: Clear
Visibility: 14 km
2019/07/22 18:54 KHWD 221854Z 28007KT 9SM CLR 23/15 A2997 RMK AO2 SLP157 T02330150
KLVK - Livermore, California, USA
Distance from station: NNE 51km
Updated: 22/07/2019 11:53
Clear
Clear
 Wind from SSW
Wind: SSW 11 km/h
Temperature: 30°C
Dew Point: 12°C
Humidity: 33%
Barometer: 1013.9 hPa
Clouds: Clear
Visibility: 16 km
2019/07/22 18:53 KLVK 221853Z 21006KT 10SM CLR 30/12 A2994 RMK AO2 SLP134 T03000117